createdAt,value
2019-01-08T00:01:32.460Z,15.63
2019-01-08T00:03:59.309Z,16.80
2019-01-08T00:06:25.728Z,16.83
2019-01-08T00:08:52.066Z,17.53
2019-01-08T00:11:18.451Z,17.23
2019-01-08T00:13:44.950Z,16.50
2019-01-08T00:16:11.476Z,17.13
2019-01-08T00:18:37.879Z,16.03
2019-01-08T00:21:04.385Z,15.47
2019-01-08T00:23:30.799Z,13.83
2019-01-08T00:25:57.146Z,13.03
2019-01-08T00:28:23.522Z,11.00
2019-01-08T00:30:50.050Z,10.63
2019-01-08T00:33:16.454Z,10.67
2019-01-08T00:35:43.015Z,10.97
2019-01-08T00:38:09.324Z,8.17
2019-01-08T00:40:35.891Z,7.90
2019-01-08T00:43:02.435Z,7.63
2019-01-08T00:45:28.882Z,7.13
2019-01-08T00:47:55.285Z,6.60
2019-01-08T00:50:21.616Z,6.10
2019-01-08T00:52:48.029Z,6.10
2019-01-08T00:55:14.385Z,6.13
2019-01-08T00:57:40.716Z,5.53
2019-01-08T01:00:08.751Z,5.43
2019-01-08T01:02:35.201Z,5.43
2019-01-08T01:05:02.610Z,4.37
2019-01-08T01:07:29.133Z,4.47
2019-01-08T01:09:55.519Z,4.03
2019-01-08T01:12:22.043Z,4.77
2019-01-08T01:14:48.578Z,4.47
2019-01-08T01:17:14.891Z,4.60
2019-01-08T01:19:41.410Z,4.33
2019-01-08T01:22:07.692Z,4.30
2019-01-08T01:24:34.122Z,3.97
2019-01-08T01:27:00.609Z,4.57
2019-01-08T01:29:27.136Z,4.47
2019-01-08T01:31:53.586Z,4.67
2019-01-08T01:34:20.001Z,4.93
2019-01-08T01:36:46.405Z,5.80
2019-01-08T01:39:12.748Z,5.00
2019-01-08T01:41:39.159Z,4.80
2019-01-08T01:44:05.661Z,5.17
2019-01-08T01:46:32.084Z,5.40
2019-01-08T01:48:58.560Z,6.17
2019-01-08T01:51:25.020Z,7.30
2019-01-08T01:53:51.330Z,6.70
2019-01-08T01:56:17.660Z,7.63
2019-01-08T01:58:44.181Z,8.03
2019-01-08T02:01:10.497Z,6.50
2019-01-08T02:03:36.967Z,6.73
2019-01-08T02:06:03.464Z,6.70
2019-01-08T02:08:29.800Z,6.43
2019-01-08T02:10:56.292Z,6.43
2019-01-08T02:13:22.935Z,6.17
2019-01-08T02:15:49.459Z,5.63
2019-01-08T02:18:15.831Z,5.80
2019-01-08T02:20:42.339Z,6.00
2019-01-08T02:23:08.840Z,5.37
2019-01-08T02:25:35.251Z,5.60
2019-01-08T02:28:01.650Z,4.83
2019-01-08T02:30:28.207Z,5.03
2019-01-08T02:32:54.611Z,4.30
2019-01-08T02:35:21.016Z,5.03
2019-01-08T02:37:47.430Z,5.23
2019-01-08T02:40:13.716Z,4.80
2019-01-08T02:42:40.054Z,5.23
2019-01-08T02:45:06.676Z,5.07
2019-01-08T02:47:33.085Z,5.77
2019-01-08T02:49:59.470Z,5.13
2019-01-08T02:52:25.870Z,4.43
2019-01-08T02:54:52.272Z,5.03
2019-01-08T02:57:18.779Z,5.33
2019-01-08T02:59:45.316Z,5.87
2019-01-08T03:02:11.909Z,4.33
2019-01-08T03:04:38.494Z,5.70
2019-01-08T03:07:05.074Z,5.20
2019-01-08T03:09:33.499Z,5.10
2019-01-08T03:11:59.976Z,5.13
2019-01-08T03:14:26.335Z,5.40
2019-01-08T03:16:52.750Z,5.07
2019-01-08T03:19:19.127Z,5.93
2019-01-08T03:21:45.655Z,5.50
2019-01-08T03:24:12.006Z,5.20
2019-01-08T03:26:38.541Z,4.83
2019-01-08T03:29:04.912Z,5.23
2019-01-08T03:31:31.471Z,5.23
2019-01-08T03:33:58.019Z,4.90
2019-01-08T03:36:24.888Z,5.60
2019-01-08T03:38:51.616Z,5.13
2019-01-08T03:41:18.048Z,5.87
2019-01-08T03:43:44.568Z,5.10
2019-01-08T03:46:11.099Z,5.47
2019-01-08T03:48:37.410Z,5.10
2019-01-08T03:51:04.002Z,5.90
2019-01-08T03:53:30.301Z,6.27
2019-01-08T03:55:56.599Z,5.67
2019-01-08T03:58:22.924Z,5.43
2019-01-08T04:00:49.332Z,6.33
2019-01-08T04:03:15.629Z,5.33
2019-01-08T04:05:41.962Z,7.07
2019-01-08T04:08:08.444Z,5.20
2019-01-08T04:10:34.842Z,5.57
2019-01-08T04:13:01.265Z,5.37
2019-01-08T04:15:27.955Z,5.47
2019-01-08T04:17:54.376Z,6.10
2019-01-08T04:20:23.336Z,5.87
2019-01-08T04:22:49.708Z,6.10
2019-01-08T04:25:16.084Z,5.33
2019-01-08T04:27:42.490Z,5.40
2019-01-08T04:30:09.016Z,5.40
2019-01-08T04:32:35.502Z,5.07
2019-01-08T04:35:02.091Z,5.07
2019-01-08T04:37:28.476Z,4.90
2019-01-08T04:39:54.891Z,5.20
2019-01-08T04:42:21.294Z,4.77
2019-01-08T04:44:47.691Z,5.20
2019-01-08T04:47:14.034Z,5.63
2019-01-08T04:49:40.445Z,6.30
2019-01-08T04:52:06.850Z,5.10
2019-01-08T04:54:33.274Z,5.40
2019-01-08T04:56:59.666Z,5.87
2019-01-08T04:59:26.074Z,6.37
2019-01-08T05:01:52.477Z,5.40
2019-01-08T05:04:18.802Z,5.87
2019-01-08T05:06:45.327Z,5.97
2019-01-08T05:09:11.696Z,5.37
2019-01-08T05:11:38.226Z,5.30
2019-01-08T05:14:04.820Z,5.40
2019-01-08T05:16:31.325Z,5.33
2019-01-08T05:18:57.879Z,6.40
2019-01-08T05:21:24.391Z,6.90
2019-01-08T05:23:50.771Z,5.83
2019-01-08T05:26:17.345Z,6.23
2019-01-08T05:28:43.866Z,5.17
2019-01-08T05:31:10.307Z,5.60
2019-01-08T05:33:36.738Z,5.60
2019-01-08T05:36:03.233Z,5.13
2019-01-08T05:38:29.621Z,5.20
2019-01-08T05:40:56.019Z,5.20
2019-01-08T05:43:22.436Z,5.40
2019-01-08T05:45:48.790Z,5.23
2019-01-08T05:48:15.207Z,5.90
2019-01-08T05:50:41.619Z,5.40
2019-01-08T05:53:07.904Z,4.90
2019-01-08T05:55:34.353Z,5.47
2019-01-08T05:58:00.884Z,6.23
2019-01-08T06:00:27.290Z,4.87
2019-01-08T06:02:53.724Z,5.57
2019-01-08T06:05:20.035Z,6.80
2019-01-08T06:07:46.320Z,6.90
2019-01-08T06:10:12.787Z,6.87
2019-01-08T06:12:39.102Z,6.57
2019-01-08T06:15:05.934Z,5.37
2019-01-08T06:17:32.466Z,5.67
2019-01-08T06:19:58.910Z,5.23
2019-01-08T06:22:25.350Z,5.63
2019-01-08T06:24:51.825Z,5.37
2019-01-08T06:27:18.192Z,5.20
2019-01-08T06:29:44.456Z,6.43
2019-01-08T06:32:11.097Z,5.30
2019-01-08T06:34:37.592Z,5.73
2019-01-08T06:37:04.007Z,5.27
2019-01-08T06:39:30.519Z,6.27
2019-01-08T06:41:57.008Z,5.30
2019-01-08T06:44:23.542Z,4.87
2019-01-08T06:46:50.042Z,4.43
2019-01-08T06:49:16.364Z,4.67
2019-01-08T06:51:42.869Z,4.67
2019-01-08T06:54:09.259Z,4.20
2019-01-08T06:56:35.745Z,3.60
2019-01-08T06:59:02.236Z,4.50
2019-01-08T07:01:28.798Z,4.17
2019-01-08T07:03:55.201Z,4.53
2019-01-08T07:06:21.674Z,4.00
2019-01-08T07:08:47.967Z,3.50
2019-01-08T07:11:14.549Z,3.33
2019-01-08T07:13:41.086Z,4.00
2019-01-08T07:16:07.455Z,3.90
2019-01-08T07:18:33.777Z,3.57
2019-01-08T07:21:00.282Z,3.40
2019-01-08T07:23:26.562Z,3.40
2019-01-08T07:25:53.005Z,3.73
2019-01-08T07:28:19.314Z,3.23
2019-01-08T07:30:45.843Z,3.17
2019-01-08T07:33:12.331Z,3.73
2019-01-08T07:35:38.638Z,3.47
2019-01-08T07:38:05.035Z,3.60
2019-01-08T07:40:31.517Z,3.73
2019-01-08T07:42:58.018Z,3.40
2019-01-08T07:45:24.642Z,3.83
2019-01-08T07:47:50.996Z,3.67
2019-01-08T07:50:17.507Z,3.60
2019-01-08T07:52:43.941Z,3.60
2019-01-08T07:55:10.266Z,3.50
2019-01-08T07:57:36.809Z,3.07
2019-01-08T08:00:05.941Z,3.70
2019-01-08T08:02:32.317Z,3.37
2019-01-08T08:04:58.666Z,3.47
2019-01-08T08:07:25.073Z,3.37
2019-01-08T08:09:51.463Z,3.67
2019-01-08T08:12:18.031Z,3.20
2019-01-08T08:14:44.436Z,4.00
2019-01-08T08:17:10.847Z,3.57
2019-01-08T08:19:37.361Z,4.00
2019-01-08T08:22:04.020Z,4.40
2019-01-08T08:24:30.426Z,3.37
2019-01-08T08:26:56.833Z,3.77
2019-01-08T08:29:23.282Z,4.10
2019-01-08T08:31:49.696Z,4.00
2019-01-08T08:34:16.181Z,3.87
2019-01-08T08:36:42.696Z,3.87
2019-01-08T08:39:09.226Z,4.23
2019-01-08T08:41:35.622Z,4.30
2019-01-08T08:44:02.112Z,3.83
2019-01-08T08:46:28.571Z,5.30
2019-01-08T08:48:55.077Z,4.73
2019-01-08T08:51:21.616Z,4.60
2019-01-08T08:53:52.442Z,4.93
2019-01-08T08:56:16.327Z,4.17
2019-01-08T08:58:42.771Z,3.90
2019-01-08T09:01:09.071Z,4.50
2019-01-08T09:03:35.625Z,4.37
2019-01-08T09:06:01.942Z,4.40
2019-01-08T09:08:28.496Z,4.17
2019-01-08T09:10:55.083Z,4.27
2019-01-08T09:13:21.599Z,4.47
2019-01-08T09:15:48.116Z,5.03
2019-01-08T09:18:14.623Z,5.33
2019-01-08T09:20:41.251Z,4.27
2019-01-08T09:23:07.858Z,4.63
2019-01-08T09:25:34.407Z,4.47
2019-01-08T09:28:00.830Z,4.13
2019-01-08T09:30:27.236Z,5.17
2019-01-08T09:32:53.683Z,4.90
2019-01-08T09:35:20.213Z,4.93
2019-01-08T09:37:46.660Z,4.83
2019-01-08T09:40:13.157Z,4.63
2019-01-08T09:42:39.772Z,5.00
2019-01-08T09:45:07.155Z,4.33
2019-01-08T09:47:33.561Z,5.43
2019-01-08T09:49:59.996Z,5.40
2019-01-08T09:52:26.593Z,4.60
2019-01-08T09:54:53.013Z,5.30
2019-01-08T09:57:19.421Z,4.67
2019-01-08T09:59:45.913Z,4.20
2019-01-08T10:02:12.551Z,4.67
2019-01-08T10:04:38.971Z,5.30
2019-01-08T10:07:05.378Z,4.50
2019-01-08T10:09:31.727Z,5.40
2019-01-08T10:11:58.157Z,4.97
2019-01-08T10:14:24.681Z,4.50
2019-01-08T10:16:51.083Z,5.13
2019-01-08T10:19:17.672Z,5.00
2019-01-08T10:21:43.953Z,4.80
2019-01-08T10:24:10.599Z,5.37
2019-01-08T10:26:37.352Z,5.13
2019-01-08T10:29:03.770Z,5.40
2019-01-08T10:31:32.631Z,5.80
2019-01-08T10:33:58.636Z,5.07
2019-01-08T10:36:25.276Z,5.77
2019-01-08T10:38:51.601Z,4.80
2019-01-08T10:41:18.108Z,5.13
2019-01-08T10:43:44.618Z,5.50
2019-01-08T10:46:11.265Z,5.00
2019-01-08T10:48:37.635Z,5.43
2019-01-08T10:51:04.261Z,5.37
2019-01-08T10:53:30.701Z,5.67
2019-01-08T10:55:57.023Z,4.77
2019-01-08T10:58:23.434Z,4.13
2019-01-08T11:00:49.823Z,5.07
2019-01-08T11:03:16.348Z,5.13
2019-01-08T11:05:42.858Z,5.50
2019-01-08T11:08:09.306Z,4.57
2019-01-08T11:10:35.728Z,4.27
2019-01-08T11:13:02.088Z,4.80
2019-01-08T11:15:28.472Z,6.00
2019-01-08T11:17:54.797Z,5.27
2019-01-08T11:20:21.442Z,4.47
2019-01-08T11:22:47.937Z,5.03
2019-01-08T11:25:14.486Z,4.27
2019-01-08T11:27:41.102Z,5.43
2019-01-08T11:30:07.691Z,5.23
2019-01-08T11:32:34.247Z,4.37
2019-01-08T11:35:00.687Z,4.73
2019-01-08T11:37:27.168Z,5.03
2019-01-08T11:39:53.767Z,4.80
2019-01-08T11:42:20.181Z,5.80
2019-01-08T11:44:46.691Z,4.90
2019-01-08T11:47:13.157Z,4.60
2019-01-08T11:49:39.446Z,4.90
2019-01-08T11:52:06.199Z,5.23
2019-01-08T11:54:40.637Z,4.83
2019-01-08T11:57:00.903Z,5.33
2019-01-08T11:59:27.311Z,5.50
2019-01-08T12:01:57.474Z,5.37
2019-01-08T12:04:22.448Z,4.63
2019-01-08T12:06:48.972Z,4.80
2019-01-08T12:09:15.629Z,5.53
2019-01-08T12:11:42.221Z,5.10
2019-01-08T12:14:08.803Z,5.50
2019-01-08T12:16:35.257Z,4.53
2019-01-08T12:19:01.770Z,5.17
2019-01-08T12:21:28.423Z,3.87
2019-01-08T12:23:54.722Z,4.10
2019-01-08T12:26:21.249Z,4.87
2019-01-08T12:28:47.842Z,6.30
2019-01-08T12:31:14.270Z,5.77
2019-01-08T12:33:40.723Z,4.83
2019-01-08T12:36:07.039Z,5.30
2019-01-08T12:38:33.488Z,19.77
2019-01-08T12:41:00.171Z,6.07
2019-01-08T12:43:26.703Z,6.13
2019-01-08T12:45:53.250Z,6.00
2019-01-08T12:48:19.855Z,5.77
2019-01-08T12:50:46.343Z,5.53
2019-01-08T12:53:12.933Z,6.00
2019-01-08T12:55:39.507Z,5.80
2019-01-08T12:58:06.014Z,5.87
2019-01-08T13:00:32.580Z,5.97
2019-01-08T13:02:59.153Z,5.43
2019-01-08T13:05:25.713Z,6.67
2019-01-08T13:07:52.378Z,5.93
2019-01-08T13:10:18.924Z,5.07
2019-01-08T13:12:45.331Z,5.73
2019-01-08T13:15:12.200Z,5.43
2019-01-08T13:17:38.837Z,5.50
2019-01-08T13:20:06.748Z,4.80
2019-01-08T13:22:33.268Z,6.40
2019-01-08T13:24:59.907Z,5.20
2019-01-08T13:27:26.349Z,4.70
2019-01-08T13:29:52.862Z,4.87
2019-01-08T13:32:23.285Z,4.57
2019-01-08T13:34:47.883Z,4.80
2019-01-08T13:37:14.507Z,5.77
2019-01-08T13:39:40.942Z,4.83
2019-01-08T13:42:07.469Z,4.77
2019-01-08T13:44:33.998Z,4.63
2019-01-08T13:47:00.578Z,4.00
2019-01-08T13:49:27.191Z,4.53
2019-01-08T13:51:53.807Z,4.57
2019-01-08T13:54:20.336Z,4.30
2019-01-08T13:56:47.149Z,5.80
2019-01-08T13:59:13.757Z,5.07
2019-01-08T14:01:40.451Z,4.77
2019-01-08T14:04:07.024Z,4.80
2019-01-08T14:06:33.757Z,5.03
2019-01-08T14:09:00.314Z,5.50
2019-01-08T14:11:26.824Z,5.13
2019-01-08T14:13:53.373Z,4.63
2019-01-08T14:16:19.772Z,4.27
2019-01-08T14:18:46.421Z,5.30
2019-01-08T14:21:12.924Z,4.63
2019-01-08T14:23:39.453Z,4.53
2019-01-08T14:26:06.095Z,4.60
2019-01-08T14:28:32.537Z,4.40
2019-01-08T14:30:59.169Z,4.83
2019-01-08T14:33:25.699Z,5.17
2019-01-08T14:35:52.392Z,4.23
2019-01-08T14:38:18.827Z,4.97
2019-01-08T14:40:45.515Z,4.60
2019-01-08T14:43:14.347Z,4.10
2019-01-08T14:45:40.803Z,4.67
2019-01-08T14:48:07.382Z,4.97
2019-01-08T14:50:34.053Z,4.20
2019-01-08T14:53:00.709Z,3.70
2019-01-08T14:55:27.333Z,4.60
2019-01-08T14:57:54.256Z,3.70
2019-01-08T15:00:20.785Z,3.80
2019-01-08T15:02:49.747Z,4.30
2019-01-08T15:05:15.980Z,4.23
2019-01-08T15:07:42.433Z,4.20
2019-01-08T15:10:09.203Z,3.43
2019-01-08T15:12:35.763Z,3.30
2019-01-08T15:15:02.839Z,3.63
2019-01-08T15:17:29.479Z,3.80
2019-01-08T15:19:56.049Z,3.30
2019-01-08T15:22:23.188Z,4.27
2019-01-08T15:24:49.664Z,3.03
2019-01-08T15:27:16.266Z,3.47
2019-01-08T15:29:42.878Z,3.43
2019-01-08T15:32:09.438Z,3.53
2019-01-08T15:34:36.078Z,3.97
2019-01-08T15:37:02.853Z,3.63
2019-01-08T15:39:29.514Z,4.33
2019-01-08T15:41:56.100Z,4.63
2019-01-08T15:44:22.958Z,4.23
2019-01-08T15:46:49.696Z,4.33
2019-01-08T15:49:16.138Z,4.57
2019-01-08T15:51:42.794Z,5.30
2019-01-08T15:54:09.562Z,4.50
2019-01-08T15:56:36.068Z,5.00
2019-01-08T15:59:03.551Z,5.43
2019-01-08T16:01:30.213Z,5.10
2019-01-08T16:03:56.672Z,4.90
2019-01-08T16:06:23.061Z,4.73
2019-01-08T16:08:49.488Z,6.23
2019-01-08T16:11:16.167Z,4.47
2019-01-08T16:13:42.655Z,4.57
2019-01-08T16:16:09.239Z,4.83
2019-01-08T16:18:35.802Z,5.00
2019-01-08T16:21:02.422Z,5.23
2019-01-08T16:23:29.714Z,4.30
2019-01-08T16:25:56.460Z,5.17
2019-01-08T16:28:23.053Z,4.77
2019-01-08T16:30:49.694Z,5.30
2019-01-08T16:33:16.544Z,4.63
2019-01-08T16:35:43.304Z,4.87
2019-01-08T16:38:09.828Z,5.10
2019-01-08T16:40:36.540Z,3.43
2019-01-08T16:43:03.309Z,4.33
2019-01-08T16:45:30.067Z,3.40
2019-01-08T16:47:56.467Z,2.63
2019-01-08T16:50:23.263Z,2.60
2019-01-08T16:52:49.935Z,2.93
2019-01-08T16:55:16.642Z,3.57
2019-01-08T16:57:43.442Z,2.87
2019-01-08T17:00:11.052Z,2.50
2019-01-08T17:02:37.609Z,3.17
2019-01-08T17:05:04.388Z,2.90
2019-01-08T17:07:31.011Z,3.03
2019-01-08T17:09:57.590Z,3.20
2019-01-08T17:12:24.467Z,2.87
2019-01-08T17:14:51.115Z,3.37
2019-01-08T17:17:17.592Z,3.23
2019-01-08T17:19:44.279Z,3.17
2019-01-08T17:22:11.127Z,4.10
2019-01-08T17:24:37.751Z,3.53
2019-01-08T17:27:04.479Z,3.57
2019-01-08T17:29:31.211Z,3.47
2019-01-08T17:31:58.026Z,3.97
2019-01-08T17:34:24.745Z,4.57
2019-01-08T17:36:51.475Z,4.20
2019-01-08T17:39:18.183Z,5.00
2019-01-08T17:41:44.813Z,4.70
2019-01-08T17:44:11.338Z,3.90
2019-01-08T17:46:37.881Z,4.30
2019-01-08T17:49:04.563Z,4.90
2019-01-08T17:51:31.173Z,4.57
2019-01-08T17:53:57.809Z,4.87
2019-01-08T17:56:24.505Z,5.53
2019-01-08T17:58:56.051Z,5.60
2019-01-08T18:01:23.666Z,4.03
2019-01-08T18:03:50.380Z,4.63
2019-01-08T18:06:17.105Z,4.50
2019-01-08T18:08:43.812Z,4.60
2019-01-08T18:11:10.458Z,5.70
2019-01-08T18:13:37.240Z,5.13
2019-01-08T18:16:03.873Z,4.83
2019-01-08T18:18:30.525Z,5.70
2019-01-08T18:20:57.160Z,5.17
2019-01-08T18:23:23.527Z,5.20
2019-01-08T18:25:50.116Z,6.07
2019-01-08T18:28:17.256Z,5.83
2019-01-08T18:30:43.968Z,5.87
2019-01-08T18:33:10.703Z,4.83
2019-01-08T18:35:37.415Z,5.43
2019-01-08T18:38:04.084Z,5.10
2019-01-08T18:40:30.642Z,5.50
2019-01-08T18:42:58.291Z,5.13
2019-01-08T18:45:25.099Z,5.30
2019-01-08T18:47:51.593Z,5.57
2019-01-08T18:50:18.010Z,4.23
2019-01-08T18:52:44.600Z,4.10
2019-01-08T18:55:11.203Z,4.30
2019-01-08T18:57:37.824Z,3.50
2019-01-08T19:00:07.605Z,4.30
2019-01-08T19:02:34.154Z,4.03
2019-01-08T19:05:00.746Z,3.50
2019-01-08T19:07:27.392Z,3.80
2019-01-08T19:09:59.235Z,3.00
2019-01-08T19:12:25.659Z,3.33
2019-01-08T19:14:52.375Z,3.27
2019-01-08T19:17:18.943Z,3.20
2019-01-08T19:19:45.564Z,3.40
2019-01-08T19:22:12.344Z,3.40
2019-01-08T19:24:38.978Z,2.60
2019-01-08T19:27:05.738Z,3.00
2019-01-08T19:29:32.646Z,3.50
2019-01-08T19:31:59.339Z,3.20
2019-01-08T19:34:26.031Z,4.17
2019-01-08T19:36:52.558Z,4.27
2019-01-08T19:39:19.214Z,4.23
2019-01-08T19:41:45.967Z,4.17
2019-01-08T19:44:12.647Z,4.23
2019-01-08T19:46:39.261Z,4.00
2019-01-08T19:49:05.895Z,5.23
2019-01-08T19:51:32.736Z,4.43
2019-01-08T19:53:59.578Z,4.90
2019-01-08T19:56:26.170Z,4.63
2019-01-08T19:58:52.910Z,4.93
2019-01-08T20:01:19.507Z,5.37
2019-01-08T20:03:46.156Z,5.07
2019-01-08T20:06:12.688Z,4.37
2019-01-08T20:08:39.391Z,5.43
2019-01-08T20:11:06.061Z,4.90
2019-01-08T20:13:32.672Z,5.60
2019-01-08T20:15:59.309Z,5.00
2019-01-08T20:18:25.985Z,4.27
2019-01-08T20:20:52.536Z,5.33
2019-01-08T20:23:19.869Z,4.97
2019-01-08T20:25:46.534Z,5.00
2019-01-08T20:28:13.345Z,4.93
2019-01-08T20:30:40.298Z,4.80
2019-01-08T20:33:06.853Z,4.63
2019-01-08T20:35:33.631Z,4.63
2019-01-08T20:38:00.238Z,4.50
2019-01-08T20:40:26.928Z,4.33
2019-01-08T20:42:53.558Z,4.30
2019-01-08T20:45:20.479Z,4.17
2019-01-08T20:47:47.671Z,4.77
2019-01-08T20:50:14.361Z,5.40
2019-01-08T20:52:41.240Z,4.50
2019-01-08T20:55:07.939Z,4.13
2019-01-08T20:57:34.871Z,4.47
2019-01-08T21:00:01.752Z,4.60
2019-01-08T21:02:28.524Z,4.57
2019-01-08T21:04:54.978Z,4.70
2019-01-08T21:07:21.773Z,4.53
2019-01-08T21:09:48.488Z,4.90
2019-01-08T21:12:15.233Z,4.23
2019-01-08T21:14:41.963Z,5.10
2019-01-08T21:17:08.637Z,5.13
2019-01-08T21:19:35.371Z,4.30
2019-01-08T21:22:02.022Z,4.10
2019-01-08T21:24:29.039Z,4.40
2019-01-08T21:26:55.858Z,4.00
2019-01-08T21:29:22.484Z,3.83
2019-01-08T21:31:49.292Z,4.50
2019-01-08T21:34:15.992Z,4.20
2019-01-08T21:36:43.011Z,3.77
2019-01-08T21:39:09.464Z,3.83
2019-01-08T21:41:36.222Z,3.87
2019-01-08T21:44:02.859Z,4.10
2019-01-08T21:46:29.419Z,3.90
2019-01-08T21:48:56.119Z,3.93
2019-01-08T21:51:22.622Z,3.87
2019-01-08T21:53:49.136Z,4.47
2019-01-08T21:56:15.726Z,4.23
2019-01-08T21:58:42.533Z,4.00
2019-01-08T22:01:09.227Z,4.13
2019-01-08T22:03:35.975Z,3.80
2019-01-08T22:06:02.689Z,4.20
2019-01-08T22:08:29.434Z,4.57
2019-01-08T22:10:56.216Z,4.17
2019-01-08T22:13:22.841Z,6.97
2019-01-08T22:15:49.908Z,4.27
2019-01-08T22:18:16.448Z,4.60
2019-01-08T22:20:43.156Z,3.60
2019-01-08T22:23:09.907Z,4.07
2019-01-08T22:25:36.491Z,3.97
2019-01-08T22:28:03.239Z,3.33
2019-01-08T22:30:29.807Z,3.70
2019-01-08T22:32:56.460Z,4.13
2019-01-08T22:35:23.111Z,4.03
2019-01-08T22:37:49.638Z,4.10
2019-01-08T22:40:16.386Z,4.37
2019-01-08T22:42:43.146Z,3.87
2019-01-08T22:45:09.625Z,4.57
2019-01-08T22:47:36.344Z,4.23
2019-01-08T22:50:05.811Z,3.90
2019-01-08T22:52:32.285Z,4.93
2019-01-08T22:54:58.770Z,4.57
2019-01-08T22:57:25.709Z,4.70
2019-01-08T22:59:52.389Z,3.83
2019-01-08T23:02:19.121Z,3.33
2019-01-08T23:04:45.838Z,3.63
2019-01-08T23:07:12.441Z,2.60
2019-01-08T23:09:39.160Z,2.90
2019-01-08T23:12:05.828Z,2.70
2019-01-08T23:14:32.370Z,3.27
2019-01-08T23:16:59.107Z,2.87
2019-01-08T23:19:25.608Z,2.53
2019-01-08T23:21:52.260Z,3.00
2019-01-08T23:24:18.856Z,2.40
2019-01-08T23:26:45.541Z,2.70
2019-01-08T23:29:12.222Z,2.40
2019-01-08T23:31:38.809Z,2.60
2019-01-08T23:34:05.494Z,2.53
2019-01-08T23:36:32.174Z,2.93
2019-01-08T23:38:58.950Z,2.40
2019-01-08T23:41:25.499Z,2.73
2019-01-08T23:43:52.164Z,3.37
2019-01-08T23:46:18.760Z,2.50
2019-01-08T23:48:45.437Z,2.97
2019-01-08T23:51:12.060Z,3.13
2019-01-08T23:53:39.402Z,2.73
2019-01-08T23:56:06.020Z,2.83
2019-01-08T23:58:32.510Z,3.37
